sensor_id;sensor_type;location;lat;lon;timestamp;temperature;humidity
10386;DHT22;34307;51.332;12.334;2023-02-28T05:42:41;-0.80;99.90
10386;DHT22;34307;51.332;12.334;2023-02-28T05:45:10;-0.90;92.30
10386;DHT22;34307;51.332;12.334;2023-02-28T05:47:41;-0.80;65.60
10386;DHT22;34307;51.332;12.334;2023-02-28T05:50:09;-0.80;54.70
10386;DHT22;34307;51.332;12.334;2023-02-28T05:52:38;-0.90;34.80
10386;DHT22;34307;51.332;12.334;2023-02-28T05:55:06;-0.90;39.60
10386;DHT22;34307;51.332;12.334;2023-02-28T05:57:34;-0.90;48.30
10386;DHT22;34307;51.332;12.334;2023-02-28T06:00:05;-0.90;28.00
10386;DHT22;34307;51.332;12.334;2023-02-28T06:02:33;-0.90;19.80
10386;DHT22;34307;51.332;12.334;2023-02-28T06:05:01;-0.80;2.30
10386;DHT22;34307;51.332;12.334;2023-02-28T12:03:58;4.30;30.70
10386;DHT22;34307;51.332;12.334;2023-02-28T12:13:59;4.30;30.10
10386;DHT22;34307;51.332;12.334;2023-02-28T12:38:41;5.70;27.90
10386;DHT22;34307;51.332;12.334;2023-02-28T12:41:13;5.90;27.40
10386;DHT22;34307;51.332;12.334;2023-02-28T12:43:44;6.20;25.80
10386;DHT22;34307;51.332;12.334;2023-02-28T12:46:17;6.60;26.50
10386;DHT22;34307;51.332;12.334;2023-02-28T12:48:49;6.70;23.40
10386;DHT22;34307;51.332;12.334;2023-02-28T12:51:18;7.20;21.80
10386;DHT22;34307;51.332;12.334;2023-02-28T12:53:57;7.40;20.20
10386;DHT22;34307;51.332;12.334;2023-02-28T12:56:36;7.60;19.10
10386;DHT22;34307;51.332;12.334;2023-02-28T12:59:13;7.60;17.30
10386;DHT22;34307;51.332;12.334;2023-02-28T13:02:00;7.50;14.10
10386;DHT22;34307;51.332;12.334;2023-02-28T13:05:06;7.70;13.20
10386;DHT22;34307;51.332;12.334;2023-02-28T13:10:42;7.30;14.30
10386;DHT22;34307;51.332;12.334;2023-02-28T13:13:15;7.00;11.60
10386;DHT22;34307;51.332;12.334;2023-02-28T13:15:59;6.70;11.30
10386;DHT22;34307;51.332;12.334;2023-02-28T13:18:33;6.80;12.80
10386;DHT22;34307;51.332;12.334;2023-02-28T13:21:03;6.70;11.40
10386;DHT22;34307;51.332;12.334;2023-02-28T13:23:41;6.30;12.40
10386;DHT22;34307;51.332;12.334;2023-02-28T13:29:31;6.70;14.10
10386;DHT22;34307;51.332;12.334;2023-02-28T13:32:25;6.60;12.50
10386;DHT22;34307;51.332;12.334;2023-02-28T13:35:14;6.80;14.20
10386;DHT22;34307;51.332;12.334;2023-02-28T13:37:47;7.00;13.80
10386;DHT22;34307;51.332;12.334;2023-02-28T13:40:28;7.20;13.90
10386;DHT22;34307;51.332;12.334;2023-02-28T13:42:57;7.80;12.60
10386;DHT22;34307;51.332;12.334;2023-02-28T13:45:28;8.30;12.60
10386;DHT22;34307;51.332;12.334;2023-02-28T13:47:59;8.30;9.80
10386;DHT22;34307;51.332;12.334;2023-02-28T13:50:32;8.40;9.20
10386;DHT22;34307;51.332;12.334;2023-02-28T13:53:24;8.90;9.30
10386;DHT22;34307;51.332;12.334;2023-02-28T13:56:00;8.60;6.20
10386;DHT22;34307;51.332;12.334;2023-02-28T13:58:41;9.00;7.20
10386;DHT22;34307;51.332;12.334;2023-02-28T14:01:26;9.50;7.20
10386;DHT22;34307;51.332;12.334;2023-02-28T14:07:04;10.30;1.00
10386;DHT22;34307;51.332;12.334;2023-02-28T14:09:34;9.80;1.00
10386;DHT22;34307;51.332;12.334;2023-02-28T14:15:30;9.80;1.00
10386;DHT22;34307;51.332;12.334;2023-02-28T14:18:06;10.40;1.00
10386;DHT22;34307;51.332;12.334;2023-02-28T14:20:40;10.10;1.00
10386;DHT22;34307;51.332;12.334;2023-02-28T14:23:13;10.10;1.00
10386;DHT22;34307;51.332;12.334;2023-02-28T14:25:49;10.20;1.00
10386;DHT22;34307;51.332;12.334;2023-02-28T14:28:27;10.30;1.00
10386;DHT22;34307;51.332;12.334;2023-02-28T14:31:06;10.30;1.00
10386;DHT22;34307;51.332;12.334;2023-02-28T14:33:50;10.30;1.00
10386;DHT22;34307;51.332;12.334;2023-02-28T14:36:27;9.40;1.00
10386;DHT22;34307;51.332;12.334;2023-02-28T14:39:01;9.90;1.00
10386;DHT22;34307;51.332;12.334;2023-02-28T14:41:33;10.20;1.00
10386;DHT22;34307;51.332;12.334;2023-02-28T14:44:13;10.00;1.00
10386;DHT22;34307;51.332;12.334;2023-02-28T14:46:43;10.00;1.00
10386;DHT22;34307;51.332;12.334;2023-02-28T14:49:19;10.10;1.00
10386;DHT22;34307;51.332;12.334;2023-02-28T14:51:49;10.20;1.00
10386;DHT22;34307;51.332;12.334;2023-02-28T14:54:21;9.80;1.00
10386;DHT22;34307;51.332;12.334;2023-02-28T14:56:51;10.30;1.00
10386;DHT22;34307;51.332;12.334;2023-02-28T14:59:27;10.70;1.00
10386;DHT22;34307;51.332;12.334;2023-02-28T15:02:17;10.20;1.00
10386;DHT22;34307;51.332;12.334;2023-02-28T15:04:54;10.60;1.00
10386;DHT22;34307;51.332;12.334;2023-02-28T15:07:23;11.00;1.00
10386;DHT22;34307;51.332;12.334;2023-02-28T15:10:10;10.80;1.00
10386;DHT22;34307;51.332;12.334;2023-02-28T15:12:40;10.40;1.00
10386;DHT22;34307;51.332;12.334;2023-02-28T15:15:15;10.30;1.00
10386;DHT22;34307;51.332;12.334;2023-02-28T15:17:46;10.40;1.00
10386;DHT22;34307;51.332;12.334;2023-02-28T15:20:19;10.00;1.00
10386;DHT22;34307;51.332;12.334;2023-02-28T15:22:50;10.00;1.00
10386;DHT22;34307;51.332;12.334;2023-02-28T15:25:20;10.50;1.00
10386;DHT22;34307;51.332;12.334;2023-02-28T15:27:50;10.80;1.00
10386;DHT22;34307;51.332;12.334;2023-02-28T15:30:21;10.50;1.00
10386;DHT22;34307;51.332;12.334;2023-02-28T15:33:05;9.90;1.00
10386;DHT22;34307;51.332;12.334;2023-02-28T15:35:36;9.70;1.00
10386;DHT22;34307;51.332;12.334;2023-02-28T15:38:15;9.40;1.00
10386;DHT22;34307;51.332;12.334;2023-02-28T15:40:45;9.60;1.00
10386;DHT22;34307;51.332;12.334;2023-02-28T15:43:25;9.70;1.00
10386;DHT22;34307;51.332;12.334;2023-02-28T15:45:57;9.60;1.00
10386;DHT22;34307;51.332;12.334;2023-02-28T15:48:27;9.70;1.00
10386;DHT22;34307;51.332;12.334;2023-02-28T15:51:02;9.20;1.00
10386;DHT22;34307;51.332;12.334;2023-02-28T15:53:36;9.30;1.00
10386;DHT22;34307;51.332;12.334;2023-02-28T15:56:21;8.80;1.00
10386;DHT22;34307;51.332;12.334;2023-02-28T15:58:50;8.40;1.00
10386;DHT22;34307;51.332;12.334;2023-02-28T16:01:24;8.10;1.00
10386;DHT22;34307;51.332;12.334;2023-02-28T16:03:54;7.70;1.00
10386;DHT22;34307;51.332;12.334;2023-02-28T16:06:33;7.50;1.00
10386;DHT22;34307;51.332;12.334;2023-02-28T16:09:02;6.70;1.00
10386;DHT22;34307;51.332;12.334;2023-02-28T16:11:30;6.20;1.00
10386;DHT22;34307;51.332;12.334;2023-02-28T16:14:01;5.70;1.00
10386;DHT22;34307;51.332;12.334;2023-02-28T16:16:30;6.00;1.00
10386;DHT22;34307;51.332;12.334;2023-02-28T16:18:59;6.20;1.00
10386;DHT22;34307;51.332;12.334;2023-02-28T16:21:28;5.90;1.00
10386;DHT22;34307;51.332;12.334;2023-02-28T16:23:56;5.40;1.00
10386;DHT22;34307;51.332;12.334;2023-02-28T16:26:25;5.00;1.00
10386;DHT22;34307;51.332;12.334;2023-02-28T16:28:54;4.80;1.00
10386;DHT22;34307;51.332;12.334;2023-02-28T16:31:22;4.50;1.00
10386;DHT22;34307;51.332;12.334;2023-02-28T16:33:50;4.30;1.00
10386;DHT22;34307;51.332;12.334;2023-02-28T16:36:19;4.20;1.00
10386;DHT22;34307;51.332;12.334;2023-02-28T16:38:49;4.00;1.00
10386;DHT22;34307;51.332;12.334;2023-02-28T16:41:19;3.70;1.60
10386;DHT22;34307;51.332;12.334;2023-02-28T16:43:50;3.50;4.60
10386;DHT22;34307;51.332;12.334;2023-02-28T16:46:19;3.20;6.90
10386;DHT22;34307;51.332;12.334;2023-02-28T16:48:47;3.00;9.60
10386;DHT22;34307;51.332;12.334;2023-02-28T16:51:18;2.90;12.70
10386;DHT22;34307;51.332;12.334;2023-02-28T16:53:46;2.70;15.60
10386;DHT22;34307;51.332;12.334;2023-02-28T16:56:18;2.50;18.80
10386;DHT22;34307;51.332;12.334;2023-02-28T16:58:49;2.40;22.90
10386;DHT22;34307;51.332;12.334;2023-02-28T17:01:19;2.30;25.40
10386;DHT22;34307;51.332;12.334;2023-02-28T17:03:49;2.20;28.20
10386;DHT22;34307;51.332;12.334;2023-02-28T17:06:19;2.10;31.50
10386;DHT22;34307;51.332;12.334;2023-02-28T17:08:48;2.10;34.60
10386;DHT22;34307;51.332;12.334;2023-02-28T17:11:18;2.00;35.90
10386;DHT22;34307;51.332;12.334;2023-02-28T17:13:46;1.90;38.30
10386;DHT22;34307;51.332;12.334;2023-02-28T17:16:22;1.90;39.70
10386;DHT22;34307;51.332;12.334;2023-02-28T17:18:50;1.80;41.40
10386;DHT22;34307;51.332;12.334;2023-02-28T17:21:18;1.60;42.80
10386;DHT22;34307;51.332;12.334;2023-02-28T17:23:46;1.60;44.90
10386;DHT22;34307;51.332;12.334;2023-02-28T17:26:16;1.40;46.90
10386;DHT22;34307;51.332;12.334;2023-02-28T17:28:48;1.40;47.70
10386;DHT22;34307;51.332;12.334;2023-02-28T17:31:17;1.30;49.10
10386;DHT22;34307;51.332;12.334;2023-02-28T17:33:45;1.30;50.40
10386;DHT22;34307;51.332;12.334;2023-02-28T17:36:15;1.10;51.00
10386;DHT22;34307;51.332;12.334;2023-02-28T17:38:43;1.10;52.00
10386;DHT22;34307;51.332;12.334;2023-02-28T17:41:11;1.20;53.40
10386;DHT22;34307;51.332;12.334;2023-02-28T17:43:38;1.10;54.10
10386;DHT22;34307;51.332;12.334;2023-02-28T17:46:14;1.10;55.10
10386;DHT22;34307;51.332;12.334;2023-02-28T17:48:44;1.10;53.90
10386;DHT22;34307;51.332;12.334;2023-02-28T17:51:13;1.10;52.00
10386;DHT22;34307;51.332;12.334;2023-02-28T17:53:41;1.00;1.00
10386;DHT22;34307;51.332;12.334;2023-02-28T17:56:12;0.80;1.00
10386;DHT22;34307;51.332;12.334;2023-02-28T17:58:41;0.80;99.90
10386;DHT22;34307;51.332;12.334;2023-02-28T18:01:10;0.70;99.90
10386;DHT22;34307;51.332;12.334;2023-02-28T18:03:38;0.70;1.00
10386;DHT22;34307;51.332;12.334;2023-02-28T18:06:08;0.60;1.00
10386;DHT22;34307;51.332;12.334;2023-02-28T18:08:37;0.60;1.00
10386;DHT22;34307;51.332;12.334;2023-02-28T18:11:05;0.60;1.00
10386;DHT22;34307;51.332;12.334;2023-02-28T18:13:33;0.60;1.00
10386;DHT22;34307;51.332;12.334;2023-02-28T18:16:00;0.60;1.00
10386;DHT22;34307;51.332;12.334;2023-02-28T18:18:29;0.50;98.60
10386;DHT22;34307;51.332;12.334;2023-02-28T18:20:57;0.40;1.00
10386;DHT22;34307;51.332;12.334;2023-02-28T18:23:25;0.40;1.00
10386;DHT22;34307;51.332;12.334;2023-02-28T18:25:53;0.30;1.00
10386;DHT22;34307;51.332;12.334;2023-02-28T18:28:21;0.30;99.90
10386;DHT22;34307;51.332;12.334;2023-02-28T18:30:48;0.30;1.00
10386;DHT22;34307;51.332;12.334;2023-02-28T18:33:17;0.30;1.00
10386;DHT22;34307;51.332;12.334;2023-02-28T18:35:54;0.30;1.00
10386;DHT22;34307;51.332;12.334;2023-02-28T18:38:23;0.30;1.00
10386;DHT22;34307;51.332;12.334;2023-02-28T18:40:52;0.20;1.00
10386;DHT22;34307;51.332;12.334;2023-02-28T18:43:22;0.20;1.00
10386;DHT22;34307;51.332;12.334;2023-02-28T18:45:51;0.20;1.00
10386;DHT22;34307;51.332;12.334;2023-02-28T18:48:19;0.10;1.00
10386;DHT22;34307;51.332;12.334;2023-02-28T18:50:50;0.00;1.00
10386;DHT22;34307;51.332;12.334;2023-02-28T18:53:20;-0.10;1.00
10386;DHT22;34307;51.332;12.334;2023-02-28T18:55:49;0.00;63.60
10386;DHT22;34307;51.332;12.334;2023-02-28T18:58:17;0.00;99.90
10386;DHT22;34307;51.332;12.334;2023-02-28T19:00:46;0.00;99.90
10386;DHT22;34307;51.332;12.334;2023-02-28T19:03:14;0.00;99.90
10386;DHT22;34307;51.332;12.334;2023-02-28T19:05:42;0.00;99.90
10386;DHT22;34307;51.332;12.334;2023-02-28T19:08:11;0.00;99.90
10386;DHT22;34307;51.332;12.334;2023-02-28T19:10:39;0.00;99.90
10386;DHT22;34307;51.332;12.334;2023-02-28T19:13:07;0.20;99.90
10386;DHT22;34307;51.332;12.334;2023-02-28T19:15:35;0.30;99.90
10386;DHT22;34307;51.332;12.334;2023-02-28T19:18:03;0.30;99.90
10386;DHT22;34307;51.332;12.334;2023-02-28T19:20:31;0.20;97.70
10386;DHT22;34307;51.332;12.334;2023-02-28T19:22:59;0.10;99.00
10386;DHT22;34307;51.332;12.334;2023-02-28T19:25:29;0.00;99.90
10386;DHT22;34307;51.332;12.334;2023-02-28T19:27:57;-0.20;99.90
10386;DHT22;34307;51.332;12.334;2023-02-28T19:30:24;-0.20;99.90
10386;DHT22;34307;51.332;12.334;2023-02-28T19:32:52;-0.20;99.90
10386;DHT22;34307;51.332;12.334;2023-02-28T19:35:20;-0.20;99.90
10386;DHT22;34307;51.332;12.334;2023-02-28T19:37:48;-0.20;99.90
10386;DHT22;34307;51.332;12.334;2023-02-28T19:40:17;-0.20;99.90
10386;DHT22;34307;51.332;12.334;2023-02-28T19:42:47;-0.20;99.90
10386;DHT22;34307;51.332;12.334;2023-02-28T19:45:15;-0.10;99.90
10386;DHT22;34307;51.332;12.334;2023-02-28T19:47:43;-0.20;99.90
10386;DHT22;34307;51.332;12.334;2023-02-28T19:50:11;-0.20;99.90
10386;DHT22;34307;51.332;12.334;2023-02-28T19:52:39;-0.30;99.90
10386;DHT22;34307;51.332;12.334;2023-02-28T19:55:09;-0.50;1.00
10386;DHT22;34307;51.332;12.334;2023-02-28T19:57:37;-0.50;1.00
10386;DHT22;34307;51.332;12.334;2023-02-28T20:00:08;-0.40;1.00
10386;DHT22;34307;51.332;12.334;2023-02-28T20:02:36;-0.40;1.00
10386;DHT22;34307;51.332;12.334;2023-02-28T20:05:04;-0.50;1.00
10386;DHT22;34307;51.332;12.334;2023-02-28T20:07:33;-0.60;1.00
10386;DHT22;34307;51.332;12.334;2023-02-28T20:10:01;-0.60;1.00
10386;DHT22;34307;51.332;12.334;2023-02-28T20:12:28;-0.80;1.00
10386;DHT22;34307;51.332;12.334;2023-02-28T20:14:56;-0.80;1.00
10386;DHT22;34307;51.332;12.334;2023-02-28T20:17:27;-0.90;1.00
10386;DHT22;34307;51.332;12.334;2023-02-28T20:19:55;-0.80;99.90
10386;DHT22;34307;51.332;12.334;2023-02-28T20:22:23;-0.90;99.90
10386;DHT22;34307;51.332;12.334;2023-02-28T20:24:51;-0.90;1.00
10386;DHT22;34307;51.332;12.334;2023-02-28T20:27:19;-0.90;99.90
10386;DHT22;34307;51.332;12.334;2023-02-28T20:29:47;-0.90;99.90
10386;DHT22;34307;51.332;12.334;2023-02-28T20:32:15;-0.80;1.00
10386;DHT22;34307;51.332;12.334;2023-02-28T20:34:44;-0.90;99.90
10386;DHT22;34307;51.332;12.334;2023-02-28T20:37:12;-0.80;1.00
10386;DHT22;34307;51.332;12.334;2023-02-28T20:39:40;-0.70;1.00
10386;DHT22;34307;51.332;12.334;2023-02-28T20:42:07;-0.80;99.90
10386;DHT22;34307;51.332;12.334;2023-02-28T20:44:35;-0.80;99.90
10386;DHT22;34307;51.332;12.334;2023-02-28T20:47:03;-0.90;1.00
10386;DHT22;34307;51.332;12.334;2023-02-28T20:49:31;-0.90;1.00
10386;DHT22;34307;51.332;12.334;2023-02-28T20:52:00;-0.90;1.00
10386;DHT22;34307;51.332;12.334;2023-02-28T20:54:28;-1.00;99.90
10386;DHT22;34307;51.332;12.334;2023-02-28T20:56:56;-0.90;1.00
10386;DHT22;34307;51.332;12.334;2023-02-28T20:59:24;-0.90;99.90
10386;DHT22;34307;51.332;12.334;2023-02-28T21:01:52;-0.80;99.90
10386;DHT22;34307;51.332;12.334;2023-02-28T21:04:22;-0.90;99.90
10386;DHT22;34307;51.332;12.334;2023-02-28T21:06:49;-0.90;99.90
10386;DHT22;34307;51.332;12.334;2023-02-28T21:09:19;-0.90;99.90
10386;DHT22;34307;51.332;12.334;2023-02-28T21:11:46;-1.00;99.90
10386;DHT22;34307;51.332;12.334;2023-02-28T21:14:17;-1.10;99.90
10386;DHT22;34307;51.332;12.334;2023-02-28T21:16:48;-1.20;99.90
10386;DHT22;34307;51.332;12.334;2023-02-28T21:19:16;-1.30;99.90
10386;DHT22;34307;51.332;12.334;2023-02-28T21:21:44;-1.20;99.90
10386;DHT22;34307;51.332;12.334;2023-02-28T21:24:19;-1.20;99.90
10386;DHT22;34307;51.332;12.334;2023-02-28T21:26:47;-1.10;99.90
10386;DHT22;34307;51.332;12.334;2023-02-28T21:29:16;-1.10;1.00
10386;DHT22;34307;51.332;12.334;2023-02-28T21:31:44;-1.00;1.00
10386;DHT22;34307;51.332;12.334;2023-02-28T21:34:12;-1.00;1.00
10386;DHT22;34307;51.332;12.334;2023-02-28T21:36:42;-1.00;1.00
10386;DHT22;34307;51.332;12.334;2023-02-28T21:39:13;-0.90;1.00
10386;DHT22;34307;51.332;12.334;2023-02-28T21:41:42;-1.00;99.90
10386;DHT22;34307;51.332;12.334;2023-02-28T21:44:11;-1.10;99.90
10386;DHT22;34307;51.332;12.334;2023-02-28T21:46:45;-1.10;1.00
10386;DHT22;34307;51.332;12.334;2023-02-28T21:49:16;-1.10;1.00
10386;DHT22;34307;51.332;12.334;2023-02-28T21:51:44;-1.20;1.00
10386;DHT22;34307;51.332;12.334;2023-02-28T21:54:12;-1.10;38.00
10386;DHT22;34307;51.332;12.334;2023-02-28T21:56:41;-1.20;1.00
10386;DHT22;34307;51.332;12.334;2023-02-28T21:59:10;-1.20;99.10
10386;DHT22;34307;51.332;12.334;2023-02-28T22:01:39;-1.30;99.90
10386;DHT22;34307;51.332;12.334;2023-02-28T22:04:11;-1.30;99.90
10386;DHT22;34307;51.332;12.334;2023-02-28T22:06:49;-1.40;99.90
